createdAt,value
2023-05-09T00:00:02.841Z,30.50
2023-05-09T00:02:30.844Z,31.93
2023-05-09T00:04:58.787Z,30.20
2023-05-09T00:07:26.642Z,31.07
2023-05-09T00:09:55.894Z,29.53
2023-05-09T00:12:23.929Z,29.73
2023-05-09T00:14:54.211Z,32.30
2023-05-09T00:17:22.652Z,30.47
2023-05-09T00:19:51.082Z,31.40
2023-05-09T00:22:21.441Z,29.77
2023-05-09T00:24:49.426Z,31.13
2023-05-09T00:27:18.741Z,34.10
2023-05-09T00:29:46.608Z,32.70
2023-05-09T00:32:14.726Z,31.27
2023-05-09T00:34:42.608Z,32.53
2023-05-09T00:37:10.421Z,32.43
2023-05-09T00:39:38.323Z,29.77
2023-05-09T00:42:06.342Z,28.47
2023-05-09T00:44:35.593Z,29.20
2023-05-09T00:47:03.540Z,34.00
2023-05-09T00:49:31.781Z,27.83
2023-05-09T00:51:59.863Z,29.20
2023-05-09T00:54:27.818Z,28.90
2023-05-09T00:56:55.780Z,31.30
2023-05-09T00:59:23.742Z,32.83
2023-05-09T01:01:53.308Z,35.10
2023-05-09T01:04:21.447Z,34.67
2023-05-09T01:06:57.129Z,30.67
2023-05-09T01:09:30.801Z,34.17
2023-05-09T01:12:08.854Z,28.33
2023-05-09T01:14:45.204Z,30.20
2023-05-09T01:17:27.120Z,31.63
2023-05-09T01:20:05.638Z,31.77
2023-05-09T01:22:37.327Z,31.80
2023-05-09T01:25:35.010Z,33.33
2023-05-09T01:28:12.523Z,34.80
2023-05-09T01:30:45.588Z,32.30
2023-05-09T01:33:17.346Z,31.33
2023-05-09T01:35:47.642Z,31.40
2023-05-09T01:38:20.682Z,31.30
2023-05-09T01:40:51.725Z,27.87
2023-05-09T01:43:21.235Z,29.87
2023-05-09T01:45:52.208Z,29.20
2023-05-09T01:48:21.050Z,30.03
2023-05-09T01:50:49.803Z,26.77
2023-05-09T01:53:18.773Z,31.23
2023-05-09T01:55:48.120Z,30.40
2023-05-09T01:58:16.865Z,32.77
2023-05-09T02:00:47.045Z,30.27
2023-05-09T02:03:16.526Z,33.17
2023-05-09T02:05:45.393Z,33.67
2023-05-09T02:08:16.856Z,33.20
2023-05-09T02:10:47.247Z,35.20
2023-05-09T02:13:15.213Z,36.33
2023-05-09T02:15:44.179Z,36.50
2023-05-09T02:18:12.863Z,35.13
2023-05-09T02:20:42.160Z,30.23
2023-05-09T02:23:10.277Z,30.80
2023-05-09T02:25:39.849Z,31.37
2023-05-09T02:28:10.005Z,29.37
2023-05-09T02:30:41.788Z,29.47
2023-05-09T02:33:12.771Z,28.00
2023-05-09T02:35:43.505Z,27.60
2023-05-09T02:38:12.331Z,27.00
2023-05-09T02:40:40.774Z,27.07
2023-05-09T02:43:08.808Z,27.23
2023-05-09T02:45:37.009Z,26.50
2023-05-09T02:48:08.373Z,26.63
2023-05-09T02:50:38.133Z,26.57
2023-05-09T02:53:07.380Z,26.10
2023-05-09T02:55:35.309Z,26.43
2023-05-09T02:58:13.426Z,24.77
2023-05-09T03:00:42.592Z,26.27
2023-05-09T03:03:11.263Z,26.90
2023-05-09T03:05:39.405Z,27.03
2023-05-09T03:08:08.982Z,28.10
2023-05-09T03:10:36.836Z,25.70
2023-05-09T03:13:05.040Z,28.93
2023-05-09T03:15:32.946Z,27.80
2023-05-09T03:18:00.900Z,27.80
2023-05-09T03:20:28.779Z,26.47
2023-05-09T03:22:56.683Z,27.37
2023-05-09T03:25:26.429Z,32.80
2023-05-09T03:27:54.406Z,29.47
2023-05-09T03:30:22.338Z,27.17
2023-05-09T03:32:50.272Z,30.60
2023-05-09T03:35:18.149Z,29.83
2023-05-09T03:37:46.035Z,31.70
2023-05-09T03:40:14.175Z,27.13
2023-05-09T03:42:43.390Z,26.10
2023-05-09T03:45:12.359Z,30.30
2023-05-09T03:47:40.526Z,29.33
2023-05-09T03:50:09.574Z,28.33
2023-05-09T03:52:38.253Z,31.53
2023-05-09T03:55:07.207Z,29.13
2023-05-09T03:57:36.198Z,31.30
2023-05-09T04:00:06.831Z,31.07
2023-05-09T04:02:35.056Z,32.37
2023-05-09T04:05:03.760Z,31.83
2023-05-09T04:07:31.671Z,34.10
2023-05-09T04:09:59.583Z,32.17
2023-05-09T04:12:27.423Z,32.73
2023-05-09T04:14:55.401Z,31.27
2023-05-09T04:17:24.578Z,31.77
2023-05-09T04:19:52.683Z,33.83
2023-05-09T04:22:20.714Z,30.77
2023-05-09T04:24:48.567Z,32.80
2023-05-09T04:27:16.424Z,32.00
2023-05-09T04:29:44.258Z,32.70
2023-05-09T04:32:12.199Z,30.93
2023-05-09T04:34:41.457Z,36.43
2023-05-09T04:37:09.313Z,34.87
2023-05-09T04:39:37.322Z,34.43
2023-05-09T04:42:05.589Z,30.60
2023-05-09T04:44:34.073Z,31.77
2023-05-09T04:47:01.972Z,33.60
2023-05-09T04:49:29.794Z,30.60
2023-05-09T04:51:59.044Z,33.50
2023-05-09T04:54:26.835Z,29.40
2023-05-09T04:57:03.196Z,30.07
2023-05-09T04:59:38.110Z,28.27
2023-05-09T05:02:06.133Z,29.73
2023-05-09T05:04:34.071Z,28.43
2023-05-09T05:07:03.405Z,28.10
2023-05-09T05:09:31.238Z,27.53
2023-05-09T05:12:02.364Z,27.13
2023-05-09T05:14:31.644Z,26.17
2023-05-09T05:17:00.136Z,26.30
2023-05-09T05:19:28.024Z,26.03
2023-05-09T05:21:55.841Z,28.87
2023-05-09T05:24:25.085Z,33.47
2023-05-09T05:26:52.903Z,28.13
2023-05-09T05:29:21.334Z,27.00
2023-05-09T05:31:49.319Z,28.13
2023-05-09T05:34:17.597Z,28.43
2023-05-09T05:36:45.707Z,30.43
2023-05-09T05:39:13.655Z,26.60
2023-05-09T05:41:42.857Z,29.37
2023-05-09T05:44:10.721Z,29.53
2023-05-09T05:46:38.588Z,27.10
2023-05-09T05:49:06.532Z,27.30
2023-05-09T05:51:34.472Z,27.57
2023-05-09T05:54:02.392Z,28.80
2023-05-09T05:56:30.749Z,31.30
2023-05-09T05:58:59.987Z,27.93
2023-05-09T06:01:27.843Z,29.87
2023-05-09T06:03:56.035Z,29.80
2023-05-09T06:06:24.348Z,29.30
2023-05-09T06:08:52.272Z,27.30
2023-05-09T06:11:21.125Z,26.57
2023-05-09T06:13:49.070Z,27.10
2023-05-09T06:16:20.330Z,26.87
2023-05-09T06:18:48.614Z,27.07
2023-05-09T06:21:16.441Z,28.43
2023-05-09T06:24:01.413Z,26.87
2023-05-09T06:26:32.294Z,26.37
2023-05-09T06:29:00.216Z,24.50
2023-05-09T06:31:29.634Z,26.10
2023-05-09T06:33:57.545Z,28.87
2023-05-09T06:36:25.533Z,27.13
2023-05-09T06:38:53.444Z,27.13
2023-05-09T06:41:21.452Z,24.87
2023-05-09T06:43:50.011Z,26.40
2023-05-09T06:46:18.037Z,27.53
2023-05-09T06:48:47.288Z,26.17
2023-05-09T06:51:15.139Z,27.30
2023-05-09T06:53:42.943Z,28.63
2023-05-09T06:56:10.848Z,31.17
2023-05-09T06:58:38.830Z,27.60
2023-05-09T07:01:07.075Z,28.00
2023-05-09T07:03:35.056Z,27.93
2023-05-09T07:06:04.870Z,29.60
2023-05-09T07:08:32.933Z,25.97
2023-05-09T07:11:00.786Z,27.60
2023-05-09T07:13:28.666Z,27.77
2023-05-09T07:15:57.014Z,25.43
2023-05-09T07:18:25.049Z,23.93
2023-05-09T07:20:52.944Z,24.40
2023-05-09T07:23:22.230Z,23.40
2023-05-09T07:25:50.128Z,25.27
2023-05-09T07:28:19.103Z,26.17
2023-05-09T07:30:46.939Z,22.70
2023-05-09T07:33:14.828Z,23.30
2023-05-09T07:35:42.653Z,23.00
2023-05-09T07:38:11.057Z,22.10
2023-05-09T07:40:41.132Z,20.50
2023-05-09T07:43:09.004Z,21.40
2023-05-09T07:45:37.010Z,21.93
2023-05-09T07:48:05.366Z,22.53
2023-05-09T07:50:33.225Z,21.93
2023-05-09T07:53:01.201Z,22.07
2023-05-09T07:55:29.078Z,23.00
2023-05-09T07:57:58.283Z,20.67
2023-05-09T08:00:26.416Z,19.53
2023-05-09T08:02:54.495Z,19.02
2023-05-09T08:05:22.499Z,17.07
2023-05-09T08:07:50.379Z,16.83
2023-05-09T08:10:18.350Z,17.57
2023-05-09T08:12:46.236Z,17.83
2023-05-09T08:15:15.700Z,18.77
2023-05-09T08:17:43.884Z,18.60
2023-05-09T08:20:13.222Z,18.50
2023-05-09T08:22:41.190Z,26.40
2023-05-09T08:25:13.929Z,21.13
2023-05-09T08:27:42.004Z,22.47
2023-05-09T08:30:19.350Z,24.37
2023-05-09T08:32:48.689Z,22.57
2023-05-09T08:35:17.030Z,22.97
2023-05-09T08:37:47.794Z,20.70
2023-05-09T08:40:16.445Z,22.90
2023-05-09T08:42:46.790Z,20.80
2023-05-09T08:45:16.204Z,21.27
2023-05-09T08:47:45.544Z,17.43
2023-05-09T08:50:17.410Z,18.57
2023-05-09T08:52:45.786Z,18.23
2023-05-09T08:55:15.205Z,19.97
2023-05-09T08:57:43.235Z,19.07
2023-05-09T09:00:16.576Z,20.83
2023-05-09T09:02:47.361Z,19.60
2023-05-09T09:05:39.395Z,18.90
2023-05-09T09:08:06.341Z,18.83
2023-05-09T09:10:35.513Z,18.80
2023-05-09T09:13:06.193Z,18.20
2023-05-09T09:15:37.210Z,16.37
2023-05-09T09:18:09.998Z,17.60
2023-05-09T09:20:44.716Z,17.17
2023-05-09T09:23:13.556Z,19.53
2023-05-09T09:25:41.408Z,18.70
2023-05-09T09:28:09.253Z,16.37
2023-05-09T09:30:44.190Z,20.50
2023-05-09T09:33:19.551Z,17.67
2023-05-09T09:35:49.395Z,18.50
2023-05-09T09:38:18.342Z,17.60
2023-05-09T09:40:56.567Z,19.07
2023-05-09T09:43:31.265Z,19.47
2023-05-09T09:46:02.484Z,18.83
2023-05-09T09:48:39.426Z,19.77
2023-05-09T09:51:11.764Z,17.63
2023-05-09T09:53:43.184Z,15.27
2023-05-09T09:56:11.154Z,16.40
2023-05-09T09:58:39.190Z,15.33
2023-05-09T10:01:08.107Z,14.80
2023-05-09T10:03:40.154Z,15.23
2023-05-09T10:06:13.049Z,16.03
2023-05-09T10:08:41.259Z,15.17
2023-05-09T10:11:10.899Z,14.07
2023-05-09T10:13:39.294Z,14.47
2023-05-09T10:16:09.824Z,13.77
2023-05-09T10:18:38.756Z,11.77
2023-05-09T10:21:09.211Z,11.30
2023-05-09T10:23:43.548Z,9.97
2023-05-09T10:26:17.990Z,9.30
2023-05-09T10:28:48.797Z,12.03
2023-05-09T10:31:21.764Z,10.90
2023-05-09T10:33:51.216Z,11.57
2023-05-09T10:36:20.734Z,14.00
2023-05-09T10:38:50.297Z,13.43
2023-05-09T10:41:19.714Z,12.83
2023-05-09T10:43:47.739Z,12.27
2023-05-09T10:46:16.333Z,13.37
2023-05-09T10:48:45.045Z,13.70
2023-05-09T10:51:14.073Z,15.20
2023-05-09T10:53:44.157Z,13.73
2023-05-09T10:56:26.337Z,12.63
2023-05-09T10:58:54.481Z,12.37
2023-05-09T11:01:35.057Z,13.63
2023-05-09T11:04:09.487Z,10.30
2023-05-09T11:06:50.932Z,13.20
2023-05-09T11:09:31.498Z,13.90
2023-05-09T11:12:08.120Z,12.13
2023-05-09T11:14:41.807Z,12.03
2023-05-09T11:17:11.532Z,13.10
2023-05-09T11:19:59.139Z,11.30
2023-05-09T11:22:28.575Z,10.43
2023-05-09T11:25:04.580Z,11.10
2023-05-09T11:27:40.574Z,12.47
2023-05-09T11:30:10.032Z,11.13
2023-05-09T11:32:46.480Z,11.47
2023-05-09T11:35:16.608Z,10.87
2023-05-09T11:37:50.494Z,10.97
2023-05-09T11:40:20.333Z,8.83
2023-05-09T11:42:54.729Z,8.77
2023-05-09T11:45:25.446Z,7.47
2023-05-09T11:47:54.056Z,9.73
2023-05-09T11:50:22.304Z,9.50
2023-05-09T11:52:51.058Z,9.30
2023-05-09T11:55:22.187Z,12.13
2023-05-09T11:57:53.456Z,11.00
2023-05-09T12:00:23.122Z,10.70
2023-05-09T12:02:51.842Z,10.33
2023-05-09T12:05:21.028Z,8.70
2023-05-09T12:07:49.663Z,8.47
2023-05-09T12:10:20.942Z,9.77
2023-05-09T12:12:51.975Z,9.47
2023-05-09T12:15:21.533Z,8.53
2023-05-09T12:18:02.690Z,11.43
2023-05-09T12:20:41.619Z,8.57
2023-05-09T12:23:11.483Z,8.57
2023-05-09T12:25:39.440Z,8.17
2023-05-09T12:28:09.070Z,8.40
2023-05-09T12:30:37.167Z,7.43
2023-05-09T12:33:05.418Z,7.77
2023-05-09T12:35:35.364Z,8.00
2023-05-09T12:38:03.685Z,7.17
2023-05-09T12:40:31.848Z,7.00
2023-05-09T12:43:02.577Z,6.53
2023-05-09T12:45:33.602Z,7.40
2023-05-09T12:48:02.541Z,6.90
2023-05-09T12:50:35.834Z,6.60
2023-05-09T12:53:05.130Z,8.63
2023-05-09T12:55:39.806Z,6.63
2023-05-09T12:58:07.841Z,6.20
2023-05-09T13:00:46.528Z,7.30
2023-05-09T13:03:30.534Z,6.20
2023-05-09T13:05:59.753Z,6.20
2023-05-09T13:08:28.076Z,5.50
2023-05-09T13:11:08.008Z,8.43
2023-05-09T13:13:43.393Z,4.53
2023-05-09T13:16:14.884Z,6.13
2023-05-09T13:18:44.653Z,5.87
2023-05-09T13:21:12.497Z,4.53
2023-05-09T13:23:42.065Z,4.47
2023-05-09T13:26:10.014Z,5.10
2023-05-09T13:28:37.935Z,7.50
2023-05-09T13:31:06.743Z,4.50
2023-05-09T13:33:36.213Z,5.53
2023-05-09T13:36:04.230Z,4.53
2023-05-09T13:38:35.391Z,4.30
2023-05-09T13:41:03.371Z,4.20
2023-05-09T13:43:31.465Z,4.13
2023-05-09T13:45:59.465Z,4.40
2023-05-09T13:48:27.392Z,4.57
2023-05-09T13:50:57.725Z,5.83
2023-05-09T13:53:31.484Z,5.17
2023-05-09T13:55:59.370Z,6.30
2023-05-09T13:58:27.336Z,4.00
2023-05-09T14:00:55.266Z,4.80
2023-05-09T14:03:23.175Z,3.50
2023-05-09T14:05:51.899Z,3.77
2023-05-09T14:08:21.453Z,3.43
2023-05-09T14:10:49.377Z,3.87
2023-05-09T14:13:17.349Z,3.53
2023-05-09T14:15:45.323Z,4.47
2023-05-09T14:18:16.552Z,3.90
2023-05-09T14:20:45.787Z,3.47
2023-05-09T14:23:13.691Z,3.40
2023-05-09T14:25:43.104Z,3.40
2023-05-09T14:28:11.010Z,2.60
2023-05-09T14:30:38.894Z,5.33
2023-05-09T14:33:07.042Z,3.30
2023-05-09T14:35:35.147Z,2.80
2023-05-09T14:38:03.488Z,3.27
2023-05-09T14:40:32.049Z,4.97
2023-05-09T14:43:02.550Z,3.70
2023-05-09T14:45:31.353Z,3.73
2023-05-09T14:47:59.546Z,3.50
2023-05-09T14:50:27.478Z,3.80
2023-05-09T14:52:55.472Z,3.23
2023-05-09T14:55:23.995Z,3.43
2023-05-09T14:57:51.945Z,5.80
2023-05-09T15:00:22.617Z,4.63
2023-05-09T15:02:50.980Z,3.93
2023-05-09T15:05:19.023Z,3.80
2023-05-09T15:07:47.355Z,3.23
2023-05-09T15:10:15.521Z,4.60
2023-05-09T15:12:44.042Z,4.03
2023-05-09T15:15:18.123Z,2.57
2023-05-09T15:17:47.995Z,4.80
2023-05-09T15:20:17.491Z,3.30
2023-05-09T15:22:46.013Z,2.37
2023-05-09T15:25:13.972Z,2.17
2023-05-09T15:27:41.890Z,3.07
2023-05-09T15:30:11.060Z,3.13
2023-05-09T15:32:42.084Z,2.80
2023-05-09T15:35:11.611Z,2.40
2023-05-09T15:37:39.518Z,2.37
2023-05-09T15:40:09.228Z,1.90
2023-05-09T15:42:37.498Z,1.40
2023-05-09T15:45:06.510Z,1.53
2023-05-09T15:47:34.546Z,1.53
2023-05-09T15:50:02.728Z,1.60
2023-05-09T15:52:32.132Z,3.10
2023-05-09T15:55:00.857Z,1.70
2023-05-09T15:57:28.890Z,1.50
2023-05-09T15:59:56.852Z,1.87
2023-05-09T16:02:24.955Z,2.10
2023-05-09T16:04:52.939Z,6.70
2023-05-09T16:07:20.975Z,3.47
2023-05-09T16:09:50.271Z,4.10
2023-05-09T16:12:18.136Z,5.27
2023-05-09T16:14:46.020Z,4.70
2023-05-09T16:17:13.959Z,4.50
2023-05-09T16:19:42.460Z,5.70
2023-05-09T16:22:10.373Z,6.80
2023-05-09T16:24:38.505Z,4.87
2023-05-09T16:27:07.742Z,5.40
2023-05-09T16:29:35.716Z,7.40
2023-05-09T16:32:04.430Z,6.90
2023-05-09T16:34:32.814Z,6.33
2023-05-09T16:37:00.788Z,7.50
2023-05-09T16:39:28.876Z,11.10
2023-05-09T16:41:56.769Z,8.77
2023-05-09T16:44:26.431Z,6.70
2023-05-09T16:46:54.362Z,8.17
2023-05-09T16:49:22.373Z,6.67
2023-05-09T16:51:50.349Z,10.00
2023-05-09T16:54:18.348Z,7.83
2023-05-09T16:56:46.272Z,7.87
2023-05-09T16:59:14.530Z,7.93
2023-05-09T17:01:43.847Z,9.50
2023-05-09T17:04:11.790Z,10.50
2023-05-09T17:06:40.048Z,9.80
2023-05-09T17:09:08.049Z,7.60
2023-05-09T17:11:36.032Z,8.80
2023-05-09T17:14:04.346Z,8.80
2023-05-09T17:16:32.421Z,8.50
2023-05-09T17:19:01.832Z,9.03
2023-05-09T17:21:29.943Z,7.50
2023-05-09T17:23:57.878Z,6.27
2023-05-09T17:26:25.943Z,6.97
2023-05-09T17:28:54.009Z,7.13
2023-05-09T17:31:22.089Z,8.10
2023-05-09T17:33:50.004Z,7.90
2023-05-09T17:36:19.262Z,8.80
2023-05-09T17:38:47.207Z,13.60
2023-05-09T17:41:15.172Z,8.40
2023-05-09T17:43:43.073Z,7.27
2023-05-09T17:46:11.047Z,6.40
2023-05-09T17:48:38.991Z,9.30
2023-05-09T17:51:07.068Z,13.00
2023-05-09T17:53:36.437Z,12.53
2023-05-09T17:56:04.567Z,9.97
2023-05-09T17:58:32.881Z,26.03
2023-05-09T18:01:00.929Z,13.07
2023-05-09T18:03:29.564Z,13.40
2023-05-09T18:05:57.654Z,15.30
2023-05-09T18:08:25.519Z,8.00
2023-05-09T18:10:55.379Z,8.80
2023-05-09T18:13:23.448Z,13.07
2023-05-09T18:15:51.466Z,8.80
2023-05-09T18:18:19.406Z,6.43
2023-05-09T18:20:47.403Z,7.33
2023-05-09T18:23:15.933Z,4.67
2023-05-09T18:25:43.966Z,4.93
2023-05-09T18:28:13.217Z,5.20
2023-05-09T18:30:41.254Z,6.50
2023-05-09T18:33:09.469Z,4.93
2023-05-09T18:35:37.411Z,6.07
2023-05-09T18:38:05.499Z,5.30
2023-05-09T18:40:33.350Z,6.43
2023-05-09T18:43:01.252Z,7.63
2023-05-09T18:45:30.749Z,5.73
2023-05-09T18:47:58.697Z,6.53
2023-05-09T18:50:27.091Z,60.40
2023-05-09T18:52:55.210Z,6.23
2023-05-09T18:55:23.480Z,7.20
2023-05-09T18:57:51.513Z,7.77
2023-05-09T19:00:19.446Z,8.00
2023-05-09T19:02:48.815Z,8.87
2023-05-09T19:05:16.840Z,10.03
2023-05-09T19:07:44.934Z,52.33
2023-05-09T19:10:13.319Z,10.20
2023-05-09T19:12:41.636Z,6.63
2023-05-09T19:15:11.191Z,8.60
2023-05-09T19:17:39.191Z,40.50
2023-05-09T19:20:10.105Z,14.00
2023-05-09T19:22:41.144Z,7.47
2023-05-09T19:25:10.095Z,6.40
2023-05-09T19:27:37.990Z,5.30
2023-05-09T19:30:07.439Z,4.97
2023-05-09T19:32:35.419Z,4.90
2023-05-09T19:35:03.785Z,7.83
2023-05-09T19:37:33.202Z,5.43
2023-05-09T19:40:01.259Z,6.53
2023-05-09T19:42:29.237Z,6.20
2023-05-09T19:44:57.147Z,6.00
2023-05-09T19:47:25.055Z,12.70
2023-05-09T19:49:53.483Z,8.33
2023-05-09T19:52:21.576Z,8.30
2023-05-09T19:54:51.212Z,8.37
2023-05-09T19:57:20.499Z,12.40
2023-05-09T19:59:48.350Z,6.77
2023-05-09T20:02:16.299Z,8.10
2023-05-09T20:04:49.515Z,5.57
2023-05-09T20:07:17.831Z,5.33
2023-05-09T20:09:45.812Z,10.10
2023-05-09T20:12:15.085Z,7.77
2023-05-09T20:14:44.199Z,5.43
2023-05-09T20:17:12.288Z,6.03
2023-05-09T20:19:40.256Z,6.17
2023-05-09T20:22:08.813Z,26.37
2023-05-09T20:24:36.774Z,6.03
2023-05-09T20:27:04.852Z,19.20
2023-05-09T20:29:34.089Z,6.90
2023-05-09T20:32:02.202Z,6.00
2023-05-09T20:34:30.288Z,19.57
2023-05-09T20:36:58.232Z,6.97
2023-05-09T20:39:26.869Z,6.70
2023-05-09T20:41:55.740Z,10.20
2023-05-09T20:44:23.948Z,8.27
2023-05-09T20:46:53.203Z,9.00
2023-05-09T20:49:21.096Z,6.67
2023-05-09T20:51:49.022Z,8.00
2023-05-09T20:54:18.180Z,5.70
2023-05-09T20:56:46.366Z,6.90
2023-05-09T20:59:14.329Z,5.33
2023-05-09T21:01:42.388Z,11.60
2023-05-09T21:04:11.628Z,5.80
2023-05-09T21:06:39.746Z,6.00
2023-05-09T21:09:08.880Z,7.10
2023-05-09T21:11:38.345Z,5.07
2023-05-09T21:14:06.249Z,5.77
2023-05-09T21:16:34.146Z,5.77
2023-05-09T21:19:04.833Z,5.67
2023-05-09T21:21:34.224Z,7.27
2023-05-09T21:24:04.169Z,13.03
2023-05-09T21:26:33.358Z,5.20
2023-05-09T21:29:01.202Z,5.33
2023-05-09T21:31:29.233Z,4.13
2023-05-09T21:33:59.690Z,7.33
2023-05-09T21:36:28.039Z,4.00
2023-05-09T21:38:57.452Z,4.93
2023-05-09T21:41:25.613Z,3.63
2023-05-09T21:43:54.423Z,3.77
2023-05-09T21:46:22.463Z,3.43
2023-05-09T21:48:50.426Z,4.53
2023-05-09T21:51:18.296Z,4.23
2023-05-09T21:53:46.435Z,4.17
2023-05-09T21:56:15.685Z,3.87
2023-05-09T21:58:43.595Z,8.40
2023-05-09T22:01:12.539Z,4.43
2023-05-09T22:03:40.534Z,3.67
2023-05-09T22:06:08.740Z,4.83
2023-05-09T22:08:36.609Z,4.40
2023-05-09T22:11:04.820Z,4.07
2023-05-09T22:13:35.795Z,5.37
2023-05-09T22:16:04.709Z,6.83
2023-05-09T22:18:33.305Z,4.83
2023-05-09T22:21:01.277Z,3.00
2023-05-09T22:23:29.246Z,4.80
2023-05-09T22:25:57.083Z,3.43
2023-05-09T22:28:25.025Z,3.20
2023-05-09T22:30:54.286Z,5.60
2023-05-09T22:33:22.136Z,4.37
2023-05-09T22:35:50.009Z,4.73
2023-05-09T22:38:17.863Z,5.43
2023-05-09T22:40:45.732Z,3.73
2023-05-09T22:43:13.617Z,2.53
2023-05-09T22:45:41.557Z,17.97
2023-05-09T22:48:11.179Z,4.50
2023-05-09T22:50:39.055Z,4.20
2023-05-09T22:53:07.461Z,2.50
2023-05-09T22:55:36.487Z,2.60
2023-05-09T22:58:04.715Z,6.77
2023-05-09T23:00:32.738Z,4.03
2023-05-09T23:03:00.824Z,5.43
2023-05-09T23:05:30.104Z,4.17
2023-05-09T23:07:58.286Z,3.27
2023-05-09T23:10:26.298Z,2.60
2023-05-09T23:12:54.174Z,2.40
2023-05-09T23:15:22.184Z,2.23
2023-05-09T23:17:50.152Z,2.00
2023-05-09T23:20:18.476Z,1.53
2023-05-09T23:22:47.989Z,2.27
2023-05-09T23:25:15.880Z,2.27
2023-05-09T23:27:44.637Z,2.57
2023-05-09T23:30:12.738Z,3.23
2023-05-09T23:32:40.834Z,2.87
2023-05-09T23:35:09.166Z,2.47
2023-05-09T23:37:37.037Z,2.07
2023-05-09T23:40:07.166Z,2.33
2023-05-09T23:42:35.116Z,2.00
2023-05-09T23:45:03.096Z,2.23
2023-05-09T23:47:30.960Z,2.07
2023-05-09T23:49:58.812Z,3.30
2023-05-09T23:52:26.704Z,2.07
2023-05-09T23:54:54.595Z,2.63
2023-05-09T23:57:23.827Z,3.10
2023-05-09T23:59:51.667Z,1.43
